Olaton, Kentucky
Current Conditions -  °F | °C
As of 8:07 AM on Monday 20 Oct 2014 (Local Time) from KOWB Reporting Station
Light Rain Light Rain  
Wind Chill: 50°   Ceiling: Unl
Heat Index: 50°   Visibility: 9mi
Dew Point: 48°   Wind: 8mph
Humidity: 94%   Direction: 180°S
Pressure: 30.04"   Gusts: NA
Location:  37.53°N, 86.69°W
Report Text: KOWB 201307Z 18007KT 9SM -RA FEW007 10/09 A3004 RMK AO2 P0000
Loading
Personal Weather Stations






























Interactive Weather Map
Tropical Storm Tracking
New forecast layout! Learn more

10-Day Weather Forecast

Advertisements
Track Severe Weather on mobile